sensor_id;sensor_type;location;lat;lon;timestamp;pressure;altitude;pressure_sealevel;temperature;humidity
20971;BME280;10644;48.834;10.088;2023-04-16T00:00:50;96474.44;;;11.66;65.69
20971;BME280;10644;48.834;10.088;2023-04-16T00:03:16;96484.28;;;11.60;66.32
20971;BME280;10644;48.834;10.088;2023-04-16T00:05:41;96478.03;;;11.50;66.70
20971;BME280;10644;48.834;10.088;2023-04-16T00:08:06;96489.28;;;11.61;66.24
20971;BME280;10644;48.834;10.088;2023-04-16T00:10:33;96479.41;;;11.69;66.28
20971;BME280;10644;48.834;10.088;2023-04-16T00:12:59;96475.91;;;11.70;65.69
20971;BME280;10644;48.834;10.088;2023-04-16T00:15:27;96477.78;;;11.81;65.69
20971;BME280;10644;48.834;10.088;2023-04-16T00:17:52;96478.09;;;11.76;65.80
20971;BME280;10644;48.834;10.088;2023-04-16T00:20:18;96481.88;;;11.71;65.72
20971;BME280;10644;48.834;10.088;2023-04-16T00:22:44;96490.75;;;11.79;65.58
20971;BME280;10644;48.834;10.088;2023-04-16T00:25:10;96477.94;;;11.65;66.29
20971;BME280;10644;48.834;10.088;2023-04-16T00:27:35;96497.69;;;11.77;65.98
20971;BME280;10644;48.834;10.088;2023-04-16T00:30:02;96475.72;;;11.73;66.21
20971;BME280;10644;48.834;10.088;2023-04-16T00:32:28;96474.91;;;11.73;66.15
20971;BME280;10644;48.834;10.088;2023-04-16T00:34:54;96477.91;;;11.79;65.98
20971;BME280;10644;48.834;10.088;2023-04-16T00:37:21;96478.19;;;11.75;66.22
20971;BME280;10644;48.834;10.088;2023-04-16T00:39:46;96480.13;;;11.71;66.23
20971;BME280;10644;48.834;10.088;2023-04-16T00:42:12;96483.59;;;11.84;65.96
20971;BME280;10644;48.834;10.088;2023-04-16T00:44:37;96483.22;;;11.90;65.71
20971;BME280;10644;48.834;10.088;2023-04-16T00:47:03;96475.63;;;11.75;66.31
20971;BME280;10644;48.834;10.088;2023-04-16T00:49:28;96481.19;;;11.81;66.23
20971;BME280;10644;48.834;10.088;2023-04-16T00:51:54;96491.78;;;11.89;65.69
20971;BME280;10644;48.834;10.088;2023-04-16T00:54:20;96478.47;;;11.84;66.11
20971;BME280;10644;48.834;10.088;2023-04-16T00:56:46;96476.53;;;11.88;66.07
20971;BME280;10644;48.834;10.088;2023-04-16T00:59:11;96482.31;;;11.77;66.10
20971;BME280;10644;48.834;10.088;2023-04-16T01:01:36;96475.34;;;11.79;66.07
20971;BME280;10644;48.834;10.088;2023-04-16T01:04:02;96477.53;;;11.85;66.34
20971;BME280;10644;48.834;10.088;2023-04-16T01:06:27;96478.63;;;11.81;66.08
20971;BME280;10644;48.834;10.088;2023-04-16T01:08:53;96482.13;;;11.66;67.08
20971;BME280;10644;48.834;10.088;2023-04-16T01:11:18;96484.69;;;11.66;67.30
20971;BME280;10644;48.834;10.088;2023-04-16T01:13:46;96477.16;;;11.77;66.69
20971;BME280;10644;48.834;10.088;2023-04-16T01:16:11;96474.50;;;11.79;66.64
20971;BME280;10644;48.834;10.088;2023-04-16T01:18:39;96478.47;;;11.84;66.73
20971;BME280;10644;48.834;10.088;2023-04-16T01:21:04;96478.25;;;11.87;66.70
20971;BME280;10644;48.834;10.088;2023-04-16T01:23:30;96471.88;;;11.80;66.28
20971;BME280;10644;48.834;10.088;2023-04-16T01:25:55;96484.09;;;11.89;66.25
20971;BME280;10644;48.834;10.088;2023-04-16T01:28:21;96482.63;;;11.99;66.33
20971;BME280;10644;48.834;10.088;2023-04-16T01:30:47;96487.56;;;12.02;66.03
20971;BME280;10644;48.834;10.088;2023-04-16T01:33:13;96484.88;;;12.04;66.01
20971;BME280;10644;48.834;10.088;2023-04-16T01:35:39;96481.50;;;12.03;66.22
20971;BME280;10644;48.834;10.088;2023-04-16T01:38:06;96480.25;;;11.96;66.10
20971;BME280;10644;48.834;10.088;2023-04-16T01:40:32;96480.25;;;11.96;66.14
20971;BME280;10644;48.834;10.088;2023-04-16T01:42:57;96489.59;;;11.97;66.32
20971;BME280;10644;48.834;10.088;2023-04-16T01:45:22;96490.38;;;11.85;66.98
20971;BME280;10644;48.834;10.088;2023-04-16T01:47:50;96486.88;;;11.86;66.72
20971;BME280;10644;48.834;10.088;2023-04-16T01:50:17;96492.72;;;11.88;66.54
20971;BME280;10644;48.834;10.088;2023-04-16T01:52:42;96475.69;;;11.87;66.85
20971;BME280;10644;48.834;10.088;2023-04-16T01:55:08;96484.09;;;11.89;66.74
20971;BME280;10644;48.834;10.088;2023-04-16T01:57:34;96477.94;;;11.92;66.94
20971;BME280;10644;48.834;10.088;2023-04-16T01:59:59;96484.22;;;11.88;66.83
20971;BME280;10644;48.834;10.088;2023-04-16T02:02:27;96482.44;;;12.02;66.50
20971;BME280;10644;48.834;10.088;2023-04-16T02:04:54;96482.63;;;11.99;66.75
20971;BME280;10644;48.834;10.088;2023-04-16T02:07:20;96485.72;;;12.04;66.60
20971;BME280;10644;48.834;10.088;2023-04-16T02:09:45;96480.03;;;12.13;66.42
20971;BME280;10644;48.834;10.088;2023-04-16T02:12:11;96481.84;;;12.11;66.58
20971;BME280;10644;48.834;10.088;2023-04-16T02:14:38;96473.09;;;12.01;66.41
20971;BME280;10644;48.834;10.088;2023-04-16T02:17:04;96481.34;;;11.92;67.06
20971;BME280;10644;48.834;10.088;2023-04-16T02:19:30;96474.59;;;11.91;67.33
20971;BME280;10644;48.834;10.088;2023-04-16T02:22:00;96469.25;;;11.94;67.12
20971;BME280;10644;48.834;10.088;2023-04-16T02:24:31;96482.69;;;12.12;66.85
20971;BME280;10644;48.834;10.088;2023-04-16T02:26:56;96484.41;;;12.11;66.90
20971;BME280;10644;48.834;10.088;2023-04-16T02:29:22;96480.69;;;12.03;66.78
20971;BME280;10644;48.834;10.088;2023-04-16T02:31:48;96481.91;;;11.97;66.98
20971;BME280;10644;48.834;10.088;2023-04-16T02:34:13;96479.63;;;11.93;67.21
20971;BME280;10644;48.834;10.088;2023-04-16T02:36:39;96482.03;;;11.82;67.60
20971;BME280;10644;48.834;10.088;2023-04-16T02:39:04;96488.00;;;11.68;67.92
20971;BME280;10644;48.834;10.088;2023-04-16T02:41:30;96485.06;;;11.60;68.85
20971;BME280;10644;48.834;10.088;2023-04-16T02:43:55;96485.06;;;11.60;68.72
20971;BME280;10644;48.834;10.088;2023-04-16T02:46:21;96484.91;;;11.63;68.41
20971;BME280;10644;48.834;10.088;2023-04-16T02:48:46;96487.44;;;11.77;67.92
20971;BME280;10644;48.834;10.088;2023-04-16T02:51:11;96491.00;;;11.75;68.18
20971;BME280;10644;48.834;10.088;2023-04-16T02:53:36;96489.28;;;11.75;68.28
20971;BME280;10644;48.834;10.088;2023-04-16T02:56:02;96491.31;;;11.70;68.17
20971;BME280;10644;48.834;10.088;2023-04-16T02:58:30;96505.06;;;11.69;68.61
20971;BME280;10644;48.834;10.088;2023-04-16T03:00:55;96497.91;;;11.74;68.46
20971;BME280;10644;48.834;10.088;2023-04-16T03:03:21;96500.81;;;11.82;68.13
20971;BME280;10644;48.834;10.088;2023-04-16T03:05:47;96486.97;;;11.85;68.52
20971;BME280;10644;48.834;10.088;2023-04-16T03:08:12;96497.53;;;11.80;68.29
20971;BME280;10644;48.834;10.088;2023-04-16T03:10:40;96497.16;;;11.72;68.81
20971;BME280;10644;48.834;10.088;2023-04-16T03:13:06;96483.22;;;11.76;68.76
20971;BME280;10644;48.834;10.088;2023-04-16T03:15:31;96494.03;;;11.81;68.25
20971;BME280;10644;48.834;10.088;2023-04-16T03:17:57;96483.22;;;11.76;68.12
20971;BME280;10644;48.834;10.088;2023-04-16T03:20:22;96495.13;;;11.77;68.70
20971;BME280;10644;48.834;10.088;2023-04-16T03:22:48;96498.69;;;11.75;68.66
20971;BME280;10644;48.834;10.088;2023-04-16T03:25:16;96495.97;;;11.78;68.30
20971;BME280;10644;48.834;10.088;2023-04-16T03:27:44;96499.34;;;11.78;68.80
20971;BME280;10644;48.834;10.088;2023-04-16T03:30:10;96506.16;;;11.79;68.54
20971;BME280;10644;48.834;10.088;2023-04-16T03:32:36;96499.28;;;11.66;68.70
20971;BME280;10644;48.834;10.088;2023-04-16T03:35:03;96506.03;;;11.81;68.48
20971;BME280;10644;48.834;10.088;2023-04-16T03:37:28;96509.09;;;11.73;69.02
20971;BME280;10644;48.834;10.088;2023-04-16T03:39:54;96502.28;;;11.72;68.78
20971;BME280;10644;48.834;10.088;2023-04-16T03:42:19;96503.97;;;11.59;69.49
20971;BME280;10644;48.834;10.088;2023-04-16T03:44:44;96504.31;;;11.53;69.45
20971;BME280;10644;48.834;10.088;2023-04-16T03:47:12;96502.09;;;11.47;69.96
20971;BME280;10644;48.834;10.088;2023-04-16T03:49:37;96514.22;;;11.59;69.65
20971;BME280;10644;48.834;10.088;2023-04-16T03:52:02;96515.09;;;11.58;69.48
20971;BME280;10644;48.834;10.088;2023-04-16T03:54:28;96515.47;;;11.66;69.71
20971;BME280;10644;48.834;10.088;2023-04-16T03:56:53;96511.16;;;11.53;69.91
20971;BME280;10644;48.834;10.088;2023-04-16T03:59:18;96516.41;;;11.65;69.65
20971;BME280;10644;48.834;10.088;2023-04-16T04:01:44;96512.63;;;11.57;69.60
20971;BME280;10644;48.834;10.088;2023-04-16T04:04:09;96527.69;;;11.63;70.02
20971;BME280;10644;48.834;10.088;2023-04-16T04:06:35;96518.34;;;11.62;69.55
20971;BME280;10644;48.834;10.088;2023-04-16T04:09:03;96510.72;;;11.60;69.51
20971;BME280;10644;48.834;10.088;2023-04-16T04:11:28;96524.66;;;11.56;69.93
20971;BME280;10644;48.834;10.088;2023-04-16T04:13:53;96520.63;;;11.52;70.14
20971;BME280;10644;48.834;10.088;2023-04-16T04:16:19;96523.63;;;11.59;70.07
20971;BME280;10644;48.834;10.088;2023-04-16T04:18:44;96520.19;;;11.60;70.23
20971;BME280;10644;48.834;10.088;2023-04-16T04:21:10;96531.41;;;11.57;70.83
20971;BME280;10644;48.834;10.088;2023-04-16T04:23:35;96530.59;;;11.57;70.20
20971;BME280;10644;48.834;10.088;2023-04-16T04:26:01;96521.44;;;11.67;69.45
20971;BME280;10644;48.834;10.088;2023-04-16T04:28:31;96521.63;;;11.64;69.40
20971;BME280;10644;48.834;10.088;2023-04-16T04:30:57;96536.00;;;11.66;69.36
20971;BME280;10644;48.834;10.088;2023-04-16T04:33:24;96537.19;;;11.75;69.31
20971;BME280;10644;48.834;10.088;2023-04-16T04:35:49;96543.06;;;11.77;69.39
20971;BME280;10644;48.834;10.088;2023-04-16T04:38:15;96538.69;;;11.65;69.27
20971;BME280;10644;48.834;10.088;2023-04-16T04:40:44;96537.22;;;11.61;69.30
20971;BME280;10644;48.834;10.088;2023-04-16T04:43:09;96540.22;;;11.53;70.12
20971;BME280;10644;48.834;10.088;2023-04-16T04:45:34;96544.78;;;11.34;70.36
20971;BME280;10644;48.834;10.088;2023-04-16T04:47:59;96550.94;;;11.32;70.84
20971;BME280;10644;48.834;10.088;2023-04-16T04:50:25;96546.44;;;11.35;71.01
20971;BME280;10644;48.834;10.088;2023-04-16T04:52:52;96557.06;;;11.43;71.14
20971;BME280;10644;48.834;10.088;2023-04-16T04:55:18;96541.41;;;11.48;70.59
20971;BME280;10644;48.834;10.088;2023-04-16T04:57:43;96543.50;;;11.55;70.17
20971;BME280;10644;48.834;10.088;2023-04-16T05:00:09;96545.72;;;11.47;70.24
20971;BME280;10644;48.834;10.088;2023-04-16T05:02:34;96548.44;;;11.44;70.42
20971;BME280;10644;48.834;10.088;2023-04-16T05:05:00;96555.94;;;11.33;71.19
20971;BME280;10644;48.834;10.088;2023-04-16T05:07:25;96552.53;;;11.19;71.60
20971;BME280;10644;48.834;10.088;2023-04-16T05:09:50;96555.03;;;11.20;71.67
20971;BME280;10644;48.834;10.088;2023-04-16T05:12:16;96576.56;;;11.32;71.26
20971;BME280;10644;48.834;10.088;2023-04-16T05:14:43;96562.34;;;11.26;71.54
20971;BME280;10644;48.834;10.088;2023-04-16T05:17:08;96562.00;;;11.32;71.47
20971;BME280;10644;48.834;10.088;2023-04-16T05:19:35;96551.28;;;11.26;71.29
20971;BME280;10644;48.834;10.088;2023-04-16T05:22:00;96551.28;;;11.26;71.39
20971;BME280;10644;48.834;10.088;2023-04-16T05:24:27;96557.06;;;11.29;71.49
20971;BME280;10644;48.834;10.088;2023-04-16T05:26:52;96572.09;;;11.35;71.60
20971;BME280;10644;48.834;10.088;2023-04-16T05:29:17;96565.03;;;11.39;71.03
20971;BME280;10644;48.834;10.088;2023-04-16T05:31:45;96578.94;;;11.35;71.22
20971;BME280;10644;48.834;10.088;2023-04-16T05:34:11;96578.50;;;11.42;71.25
20971;BME280;10644;48.834;10.088;2023-04-16T05:36:36;96573.25;;;11.30;71.50
20971;BME280;10644;48.834;10.088;2023-04-16T05:39:01;96579.22;;;11.30;72.31
20971;BME280;10644;48.834;10.088;2023-04-16T05:41:27;96583.41;;;11.31;71.92
20971;BME280;10644;48.834;10.088;2023-04-16T05:43:52;96579.31;;;11.43;71.31
20971;BME280;10644;48.834;10.088;2023-04-16T05:46:17;96579.69;;;11.37;71.32
20971;BME280;10644;48.834;10.088;2023-04-16T05:48:45;96585.09;;;11.46;70.83
20971;BME280;10644;48.834;10.088;2023-04-16T05:51:10;96591.69;;;11.50;70.91
20971;BME280;10644;48.834;10.088;2023-04-16T05:53:36;96589.66;;;11.55;70.45
20971;BME280;10644;48.834;10.088;2023-04-16T05:56:01;96598.88;;;11.59;70.63
20971;BME280;10644;48.834;10.088;2023-04-16T05:58:27;96598.13;;;11.57;70.65
20971;BME280;10644;48.834;10.088;2023-04-16T06:00:52;96599.19;;;11.53;70.90
20971;BME280;10644;48.834;10.088;2023-04-16T06:03:17;96607.63;;;11.41;71.90
20971;BME280;10644;48.834;10.088;2023-04-16T06:05:43;96609.25;;;11.42;71.88
20971;BME280;10644;48.834;10.088;2023-04-16T06:08:08;96608.91;;;11.48;71.42
20971;BME280;10644;48.834;10.088;2023-04-16T06:10:34;96608.75;;;11.51;71.11
20971;BME280;10644;48.834;10.088;2023-04-16T06:12:59;96606.91;;;11.39;71.47
20971;BME280;10644;48.834;10.088;2023-04-16T06:15:25;96612.19;;;11.50;71.34
20971;BME280;10644;48.834;10.088;2023-04-16T06:17:50;96609.38;;;11.55;70.39
20971;BME280;10644;48.834;10.088;2023-04-16T06:20:15;96612.53;;;11.60;70.37
20971;BME280;10644;48.834;10.088;2023-04-16T06:22:41;96617.25;;;11.52;71.08
20971;BME280;10644;48.834;10.088;2023-04-16T06:25:06;96610.91;;;11.43;71.54
20971;BME280;10644;48.834;10.088;2023-04-16T06:27:32;96616.31;;;11.53;71.41
20971;BME280;10644;48.834;10.088;2023-04-16T06:29:57;96615.69;;;11.49;71.73
20971;BME280;10644;48.834;10.088;2023-04-16T06:32:23;96619.72;;;11.53;71.32
20971;BME280;10644;48.834;10.088;2023-04-16T06:34:49;96626.25;;;11.59;71.02
20971;BME280;10644;48.834;10.088;2023-04-16T06:37:14;96614.59;;;11.53;71.48
20971;BME280;10644;48.834;10.088;2023-04-16T06:39:40;96621.38;;;11.40;71.58
20971;BME280;10644;48.834;10.088;2023-04-16T06:42:05;96632.06;;;11.47;71.86
20971;BME280;10644;48.834;10.088;2023-04-16T06:44:34;96629.41;;;11.48;71.49
20971;BME280;10644;48.834;10.088;2023-04-16T06:46:59;96639.53;;;11.51;71.74
20971;BME280;10644;48.834;10.088;2023-04-16T06:49:25;96635.84;;;11.55;71.70
20971;BME280;10644;48.834;10.088;2023-04-16T06:51:50;96634.38;;;11.51;71.39
20971;BME280;10644;48.834;10.088;2023-04-16T06:54:16;96621.00;;;11.46;72.00
20971;BME280;10644;48.834;10.088;2023-04-16T06:56:41;96632.22;;;11.59;71.80
20971;BME280;10644;48.834;10.088;2023-04-16T06:59:06;96627.06;;;11.45;71.86
20971;BME280;10644;48.834;10.088;2023-04-16T07:01:32;96629.06;;;11.54;72.24
20971;BME280;10644;48.834;10.088;2023-04-16T07:03:58;96635.19;;;11.67;72.08
20971;BME280;10644;48.834;10.088;2023-04-16T07:06:23;96641.59;;;11.74;71.48
20971;BME280;10644;48.834;10.088;2023-04-16T07:08:49;96631.50;;;11.71;71.53
20971;BME280;10644;48.834;10.088;2023-04-16T07:11:14;96631.69;;;11.68;71.44
20971;BME280;10644;48.834;10.088;2023-04-16T07:13:41;96634.97;;;11.70;71.72
20971;BME280;10644;48.834;10.088;2023-04-16T07:16:07;96641.19;;;11.66;71.68
20971;BME280;10644;48.834;10.088;2023-04-16T07:18:32;96641.81;;;11.56;72.10
20971;BME280;10644;48.834;10.088;2023-04-16T07:20:57;96637.69;;;11.53;72.21
20971;BME280;10644;48.834;10.088;2023-04-16T07:23:23;96636.56;;;11.43;72.41
20971;BME280;10644;48.834;10.088;2023-04-16T07:25:48;96639.03;;;11.45;72.25
20971;BME280;10644;48.834;10.088;2023-04-16T07:28:13;96634.94;;;11.56;72.12
20971;BME280;10644;48.834;10.088;2023-04-16T07:30:42;96640.81;;;11.58;72.12
20971;BME280;10644;48.834;10.088;2023-04-16T07:33:07;96641.31;;;11.49;72.66
20971;BME280;10644;48.834;10.088;2023-04-16T07:35:32;96638.41;;;11.55;72.21
20971;BME280;10644;48.834;10.088;2023-04-16T07:37:58;96642.53;;;11.58;72.02
20971;BME280;10644;48.834;10.088;2023-04-16T07:40:23;96651.41;;;11.52;72.37
20971;BME280;10644;48.834;10.088;2023-04-16T07:42:49;96639.38;;;11.68;71.97
20971;BME280;10644;48.834;10.088;2023-04-16T07:45:15;96644.72;;;11.79;71.54
20971;BME280;10644;48.834;10.088;2023-04-16T07:47:41;96654.03;;;11.66;72.04
20971;BME280;10644;48.834;10.088;2023-04-16T07:50:06;96648.28;;;11.47;72.42
20971;BME280;10644;48.834;10.088;2023-04-16T07:52:32;96661.84;;;11.65;72.41
20971;BME280;10644;48.834;10.088;2023-04-16T07:54:57;96654.59;;;11.71;71.94
20971;BME280;10644;48.834;10.088;2023-04-16T07:57:23;96658.34;;;11.66;71.66
20971;BME280;10644;48.834;10.088;2023-04-16T07:59:48;96666.59;;;11.71;72.14
20971;BME280;10644;48.834;10.088;2023-04-16T08:02:14;96667.69;;;11.67;71.86
20971;BME280;10644;48.834;10.088;2023-04-16T08:04:41;96665.75;;;11.70;72.23
20971;BME280;10644;48.834;10.088;2023-04-16T08:07:07;96660.63;;;11.70;72.12
20971;BME280;10644;48.834;10.088;2023-04-16T08:09:32;96686.97;;;11.88;71.92
20971;BME280;10644;48.834;10.088;2023-04-16T08:12:02;96675.31;;;11.82;71.76
20971;BME280;10644;48.834;10.088;2023-04-16T08:14:27;96671.66;;;11.57;72.27
20971;BME280;10644;48.834;10.088;2023-04-16T08:16:53;96672.53;;;11.71;72.02
20971;BME280;10644;48.834;10.088;2023-04-16T08:19:18;96682.63;;;11.74;72.30
20971;BME280;10644;48.834;10.088;2023-04-16T08:21:44;96685.84;;;11.78;72.11
20971;BME280;10644;48.834;10.088;2023-04-16T08:24:09;96676.09;;;11.69;72.42
20971;BME280;10644;48.834;10.088;2023-04-16T08:26:35;96693.69;;;11.61;72.51
20971;BME280;10644;48.834;10.088;2023-04-16T08:29:00;96691.94;;;11.61;73.09
20971;BME280;10644;48.834;10.088;2023-04-16T08:31:26;96697.56;;;11.68;72.48
20971;BME280;10644;48.834;10.088;2023-04-16T08:33:51;96700.59;;;11.74;72.55
20971;BME280;10644;48.834;10.088;2023-04-16T08:36:17;96697.28;;;11.72;71.93
20971;BME280;10644;48.834;10.088;2023-04-16T08:38:42;96710.88;;;11.74;72.14
20971;BME280;10644;48.834;10.088;2023-04-16T08:41:11;96699.69;;;11.75;72.18
20971;BME280;10644;48.834;10.088;2023-04-16T08:43:37;96714.06;;;11.78;72.17
20971;BME280;10644;48.834;10.088;2023-04-16T08:46:04;96717.09;;;11.70;72.13
20971;BME280;10644;48.834;10.088;2023-04-16T08:48:32;96712.72;;;11.86;71.83
20971;BME280;10644;48.834;10.088;2023-04-16T08:50:59;96721.56;;;11.81;72.14
20971;BME280;10644;48.834;10.088;2023-04-16T08:53:34;96713.63;;;11.85;71.87
20971;BME280;10644;48.834;10.088;2023-04-16T08:56:03;96715.59;;;11.66;72.29
20971;BME280;10644;48.834;10.088;2023-04-16T08:58:30;96724.78;;;11.70;71.91
20971;BME280;10644;48.834;10.088;2023-04-16T09:00:59;96726.25;;;11.74;72.06
20971;BME280;10644;48.834;10.088;2023-04-16T09:03:28;96725.28;;;11.91;71.82
20971;BME280;10644;48.834;10.088;2023-04-16T09:05:54;96723.91;;;11.99;71.48
20971;BME280;10644;48.834;10.088;2023-04-16T09:08:21;96724.38;;;12.06;71.75
20971;BME280;10644;48.834;10.088;2023-04-16T09:10:52;96728.41;;;11.96;71.73
20971;BME280;10644;48.834;10.088;2023-04-16T09:13:19;96740.38;;;11.81;72.22
20971;BME280;10644;48.834;10.088;2023-04-16T09:15:46;96732.59;;;11.97;71.40
20971;BME280;10644;48.834;10.088;2023-04-16T09:18:11;96729.13;;;11.98;71.55
20971;BME280;10644;48.834;10.088;2023-04-16T09:20:38;96739.88;;;12.04;71.02
20971;BME280;10644;48.834;10.088;2023-04-16T09:23:03;96740.03;;;11.87;71.29
20971;BME280;10644;48.834;10.088;2023-04-16T09:25:35;96747.34;;;11.79;71.86
20971;BME280;10644;48.834;10.088;2023-04-16T09:28:01;96744.59;;;11.82;72.00
20971;BME280;10644;48.834;10.088;2023-04-16T09:30:27;96742.22;;;11.79;71.70
20971;BME280;10644;48.834;10.088;2023-04-16T09:33:13;96750.00;;;11.78;71.77
20971;BME280;10644;48.834;10.088;2023-04-16T09:35:51;96745.59;;;11.80;71.52
20971;BME280;10644;48.834;10.088;2023-04-16T09:38:19;96750.72;;;11.66;72.73
20971;BME280;10644;48.834;10.088;2023-04-16T09:40:45;96756.19;;;11.44;73.10
20971;BME280;10644;48.834;10.088;2023-04-16T09:43:15;96752.19;;;11.54;73.20
20971;BME280;10644;48.834;10.088;2023-04-16T09:45:51;96750.88;;;11.63;72.70
20971;BME280;10644;48.834;10.088;2023-04-16T09:48:32;96760.84;;;11.83;72.32
20971;BME280;10644;48.834;10.088;2023-04-16T09:50:58;96762.53;;;11.68;71.90
20971;BME280;10644;48.834;10.088;2023-04-16T09:53:29;96761.69;;;11.68;72.43
20971;BME280;10644;48.834;10.088;2023-04-16T09:55:59;96766.81;;;11.68;72.54
20971;BME280;10644;48.834;10.088;2023-04-16T09:58:27;96764.75;;;11.74;72.18
20971;BME280;10644;48.834;10.088;2023-04-16T10:01:06;96773.91;;;11.78;72.61
20971;BME280;10644;48.834;10.088;2023-04-16T10:03:32;96766.03;;;11.81;72.25
20971;BME280;10644;48.834;10.088;2023-04-16T10:06:19;96770.19;;;11.98;71.65
20971;BME280;10644;48.834;10.088;2023-04-16T10:08:48;96773.25;;;12.04;71.39
20971;BME280;10644;48.834;10.088;2023-04-16T10:11:14;96773.03;;;11.93;71.92
20971;BME280;10644;48.834;10.088;2023-04-16T10:13:40;96777.81;;;11.99;71.90
20971;BME280;10644;48.834;10.088;2023-04-16T10:16:06;96779.66;;;12.11;71.75
20971;BME280;10644;48.834;10.088;2023-04-16T10:18:35;96778.94;;;12.09;71.58
20971;BME280;10644;48.834;10.088;2023-04-16T10:21:01;96776.53;;;12.06;71.71
20971;BME280;10644;48.834;10.088;2023-04-16T10:23:26;96768.66;;;12.09;71.43
20971;BME280;10644;48.834;10.088;2023-04-16T10:25:53;96784.28;;;12.20;70.85
20971;BME280;10644;48.834;10.088;2023-04-16T10:28:19;96779.97;;;12.21;71.05
20971;BME280;10644;48.834;10.088;2023-04-16T10:30:47;96780.69;;;12.23;71.00
20971;BME280;10644;48.834;10.088;2023-04-16T10:33:21;96792.41;;;12.13;71.34
20971;BME280;10644;48.834;10.088;2023-04-16T10:35:47;96789.75;;;12.14;71.49
20971;BME280;10644;48.834;10.088;2023-04-16T10:38:24;96789.22;;;12.23;71.44
20971;BME280;10644;48.834;10.088;2023-04-16T10:40:57;96779.13;;;12.34;70.57
20971;BME280;10644;48.834;10.088;2023-04-16T10:43:24;96783.53;;;12.32;70.86
20971;BME280;10644;48.834;10.088;2023-04-16T10:45:49;96794.06;;;12.14;71.40
20971;BME280;10644;48.834;10.088;2023-04-16T10:48:17;96790.25;;;12.21;71.79
20971;BME280;10644;48.834;10.088;2023-04-16T10:50:52;96793.41;;;12.10;71.79
20971;BME280;10644;48.834;10.088;2023-04-16T10:53:25;96795.47;;;12.19;72.24
20971;BME280;10644;48.834;10.088;2023-04-16T10:58:30;96793.81;;;12.32;71.53
20971;BME280;10644;48.834;10.088;2023-04-16T11:01:00;96796.22;;;12.35;71.45
20971;BME280;10644;48.834;10.088;2023-04-16T11:03:32;96798.44;;;12.41;70.95
20971;BME280;10644;48.834;10.088;2023-04-16T11:06:14;96799.16;;;12.29;71.30
20971;BME280;10644;48.834;10.088;2023-04-16T11:08:45;96792.91;;;12.19;71.53
20971;BME280;10644;48.834;10.088;2023-04-16T11:11:11;96788.13;;;12.13;72.04
20971;BME280;10644;48.834;10.088;2023-04-16T11:13:37;96796.75;;;12.12;72.58
20971;BME280;10644;48.834;10.088;2023-04-16T11:16:04;96800.41;;;12.08;71.77
20971;BME280;10644;48.834;10.088;2023-04-16T11:18:30;96793.69;;;12.20;71.98
20971;BME280;10644;48.834;10.088;2023-04-16T11:20:55;96793.63;;;12.07;72.19
20971;BME280;10644;48.834;10.088;2023-04-16T11:23:21;96799.09;;;12.01;72.23
20971;BME280;10644;48.834;10.088;2023-04-16T11:25:46;96805.91;;;12.16;72.43
20971;BME280;10644;48.834;10.088;2023-04-16T11:28:12;96803.31;;;12.02;72.04
20971;BME280;10644;48.834;10.088;2023-04-16T11:30:39;96807.44;;;12.05;72.05
20971;BME280;10644;48.834;10.088;2023-04-16T11:33:10;96807.88;;;11.97;72.23
20971;BME280;10644;48.834;10.088;2023-04-16T11:35:36;96807.13;;;11.95;72.09
20971;BME280;10644;48.834;10.088;2023-04-16T11:38:03;96812.97;;;11.83;72.23
20971;BME280;10644;48.834;10.088;2023-04-16T11:40:31;96812.75;;;11.72;72.88
20971;BME280;10644;48.834;10.088;2023-04-16T11:43:15;96813.09;;;11.66;72.50
20971;BME280;10644;48.834;10.088;2023-04-16T11:46:13;96824.16;;;11.82;73.08
20971;BME280;10644;48.834;10.088;2023-04-16T11:48:46;96816.28;;;11.85;72.94
20971;BME280;10644;48.834;10.088;2023-04-16T11:51:12;96821.88;;;11.92;72.37
20971;BME280;10644;48.834;10.088;2023-04-16T11:53:50;96817.22;;;11.84;72.91
20971;BME280;10644;48.834;10.088;2023-04-16T11:56:30;96810.06;;;11.89;72.42
20971;BME280;10644;48.834;10.088;2023-04-16T11:59:14;96823.44;;;11.94;72.04
20971;BME280;10644;48.834;10.088;2023-04-16T12:01:41;96814.31;;;12.04;72.00
20971;BME280;10644;48.834;10.088;2023-04-16T12:04:10;96819.66;;;12.15;71.52
20971;BME280;10644;48.834;10.088;2023-04-16T12:06:37;96821.75;;;12.09;71.46
20971;BME280;10644;48.834;10.088;2023-04-16T12:09:25;96822.00;;;12.04;71.42
20971;BME280;10644;48.834;10.088;2023-04-16T12:11:51;96819.66;;;12.01;71.79
20971;BME280;10644;48.834;10.088;2023-04-16T12:14:19;96819.75;;;12.14;71.75
20971;BME280;10644;48.834;10.088;2023-04-16T12:16:45;96819.69;;;12.29;71.42
20971;BME280;10644;48.834;10.088;2023-04-16T12:19:11;96831.19;;;12.38;71.19
20971;BME280;10644;48.834;10.088;2023-04-16T12:21:47;96825.44;;;12.19;71.34
20971;BME280;10644;48.834;10.088;2023-04-16T12:24:17;96823.22;;;12.13;71.13
20971;BME280;10644;48.834;10.088;2023-04-16T12:26:52;96825.00;;;12.26;71.22
20971;BME280;10644;48.834;10.088;2023-04-16T12:29:26;96827.72;;;12.23;71.21
20971;BME280;10644;48.834;10.088;2023-04-16T12:32:21;96830.25;;;12.39;70.94
20971;BME280;10644;48.834;10.088;2023-04-16T12:34:50;96829.25;;;12.41;70.94
20971;BME280;10644;48.834;10.088;2023-04-16T12:37:16;96825.75;;;12.42;71.16
20971;BME280;10644;48.834;10.088;2023-04-16T12:39:41;96822.88;;;12.19;71.29
20971;BME280;10644;48.834;10.088;2023-04-16T12:42:09;96819.50;;;12.18;71.99
20971;BME280;10644;48.834;10.088;2023-04-16T12:44:35;96822.59;;;12.23;72.09
20971;BME280;10644;48.834;10.088;2023-04-16T12:47:00;96819.22;;;12.37;71.53
20971;BME280;10644;48.834;10.088;2023-04-16T12:49:26;96824.63;;;12.32;71.39
20971;BME280;10644;48.834;10.088;2023-04-16T12:51:51;96828.50;;;12.25;71.87